Terminal Aerodrome Forecast
Issued by NWS

Home | Current Version | Previous Version | Text Only | Print | Product List | Glossary On
Versions: 1 2 3 4 5 6 7 8 9 10 11 12 13 14 15
000
FTUS43 KAPX 200500
TAFTVC
TAF
KTVC 200526Z 2006/2106 21009KT P6SM -SHRA OVC040 WS007/20035KT
     FM201400 23010G18KT 6SM -SHRA OVC018
     FM202200 25006KT 4SM BR OVC015=

USA.gov is the U.S. government's official web portal to all federal, state and local government web resources and services.